sensor_id;sensor_type;location;lat;lon;timestamp;pressure;altitude;pressure_sealevel;temperature;humidity
47726;BME280;33483;48.294;16.388;2023-01-28T00:01:28;99970.25;;;-1.16;100.00
47726;BME280;33483;48.294;16.388;2023-01-28T00:03:55;99968.75;;;-1.17;100.00
47726;BME280;33483;48.294;16.388;2023-01-28T00:06:23;99958.16;;;-1.15;100.00
47726;BME280;33483;48.294;16.388;2023-01-28T00:08:50;99974.91;;;-1.17;100.00
47726;BME280;33483;48.294;16.388;2023-01-28T00:11:17;99970.69;;;-1.18;100.00
47726;BME280;33483;48.294;16.388;2023-01-28T00:13:44;99969.47;;;-1.17;100.00
47726;BME280;33483;48.294;16.388;2023-01-28T00:16:11;99974.19;;;-1.17;100.00
47726;BME280;33483;48.294;16.388;2023-01-28T00:18:38;99968.75;;;-1.17;100.00
47726;BME280;33483;48.294;16.388;2023-01-28T00:21:07;99972.63;;;-1.18;100.00
47726;BME280;33483;48.294;16.388;2023-01-28T00:23:38;99980.03;;;-1.19;100.00
47726;BME280;33483;48.294;16.388;2023-01-28T00:26:07;99974.59;;;-1.19;100.00
47726;BME280;33483;48.294;16.388;2023-01-28T00:28:34;99980.34;;;-1.17;100.00
47726;BME280;33483;48.294;16.388;2023-01-28T00:31:07;99964.03;;;-1.17;100.00
47726;BME280;33483;48.294;16.388;2023-01-28T00:33:35;99974.19;;;-1.17;100.00
47726;BME280;33483;48.294;16.388;2023-01-28T00:36:03;99964.47;;;-1.18;100.00
47726;BME280;33483;48.294;16.388;2023-01-28T00:38:32;99965.69;;;-1.19;100.00
47726;BME280;33483;48.294;16.388;2023-01-28T00:41:12;99966.03;;;-1.17;100.00
47726;BME280;33483;48.294;16.388;2023-01-28T00:43:40;99960.25;;;-1.19;100.00
47726;BME280;33483;48.294;16.388;2023-01-28T00:46:08;99962.97;;;-1.19;100.00
47726;BME280;33483;48.294;16.388;2023-01-28T00:48:38;99959.94;;;-1.21;100.00
47726;BME280;33483;48.294;16.388;2023-01-28T00:51:06;99957.97;;;-1.21;100.00
47726;BME280;33483;48.294;16.388;2023-01-28T00:53:33;99958.72;;;-1.20;100.00
47726;BME280;33483;48.294;16.388;2023-01-28T00:56:05;99954.03;;;-1.20;100.00
47726;BME280;33483;48.294;16.388;2023-01-28T00:58:33;99963.72;;;-1.19;100.00
47726;BME280;33483;48.294;16.388;2023-01-28T01:01:05;99961.13;;;-1.22;100.00
47726;BME280;33483;48.294;16.388;2023-01-28T01:03:35;99960.69;;;-1.21;100.00
47726;BME280;33483;48.294;16.388;2023-01-28T01:06:02;99969.91;;;-1.18;100.00
47726;BME280;33483;48.294;16.388;2023-01-28T01:08:30;99961.31;;;-1.17;100.00
47726;BME280;33483;48.294;16.388;2023-01-28T01:11:06;99972.63;;;-1.18;100.00
47726;BME280;33483;48.294;16.388;2023-01-28T01:13:33;99962.09;;;-1.16;100.00
47726;BME280;33483;48.294;16.388;2023-01-28T01:16:09;99961.75;;;-1.18;100.00
47726;BME280;33483;48.294;16.388;2023-01-28T01:18:39;99967.09;;;-1.15;100.00
47726;BME280;33483;48.294;16.388;2023-01-28T01:21:13;99965.13;;;-1.14;100.00
47726;BME280;33483;48.294;16.388;2023-01-28T01:23:41;99962.84;;;-1.16;100.00
47726;BME280;33483;48.294;16.388;2023-01-28T01:26:08;99975.56;;;-1.13;100.00
47726;BME280;33483;48.294;16.388;2023-01-28T01:28:35;99966.66;;;-1.13;100.00
47726;BME280;33483;48.294;16.388;2023-01-28T01:31:04;99968.28;;;-1.16;100.00
47726;BME280;33483;48.294;16.388;2023-01-28T01:33:32;99977.53;;;-1.13;100.00
47726;BME280;33483;48.294;16.388;2023-01-28T01:35:59;99976.34;;;-1.12;100.00
47726;BME280;33483;48.294;16.388;2023-01-28T01:38:27;99979.50;;;-1.13;100.00
47726;BME280;33483;48.294;16.388;2023-01-28T01:40:58;99979.38;;;-1.10;100.00
47726;BME280;33483;48.294;16.388;2023-01-28T01:46:12;99984.81;;;-1.10;100.00
47726;BME280;33483;48.294;16.388;2023-01-28T01:48:40;99979.91;;;-1.15;100.00
47726;BME280;33483;48.294;16.388;2023-01-28T01:51:11;99970.13;;;-1.13;100.00
47726;BME280;33483;48.294;16.388;2023-01-28T01:53:42;99984.81;;;-1.10;100.00
47726;BME280;33483;48.294;16.388;2023-01-28T01:56:11;99986.34;;;-1.09;100.00
47726;BME280;33483;48.294;16.388;2023-01-28T01:58:41;99985.13;;;-1.08;100.00
47726;BME280;33483;48.294;16.388;2023-01-28T02:01:09;99978.19;;;-1.09;100.00
47726;BME280;33483;48.294;16.388;2023-01-28T02:03:37;99983.19;;;-1.07;100.00
47726;BME280;33483;48.294;16.388;2023-01-28T02:06:07;99979.56;;;-1.04;100.00
47726;BME280;33483;48.294;16.388;2023-01-28T02:08:34;99979.69;;;-1.08;100.00
47726;BME280;33483;48.294;16.388;2023-01-28T02:11:02;99976.97;;;-1.08;100.00
47726;BME280;33483;48.294;16.388;2023-01-28T02:13:40;99976.97;;;-1.08;100.00
47726;BME280;33483;48.294;16.388;2023-01-28T02:16:11;99983.94;;;-1.07;100.00
47726;BME280;33483;48.294;16.388;2023-01-28T02:18:38;99983.94;;;-1.07;100.00
47726;BME280;33483;48.294;16.388;2023-01-28T02:21:28;99982.41;;;-1.08;100.00
47726;BME280;33483;48.294;16.388;2023-01-28T02:31:43;99968.50;;;-1.10;100.00
47726;BME280;33483;48.294;16.388;2023-01-28T02:34:47;99976.22;;;-1.08;100.00
47726;BME280;33483;48.294;16.388;2023-01-28T02:37:25;99977.28;;;-1.06;100.00
47726;BME280;33483;48.294;16.388;2023-01-28T02:39:54;99971.13;;;-1.06;100.00
47726;BME280;33483;48.294;16.388;2023-01-28T02:42:25;99972.28;;;-1.07;100.00
47726;BME280;33483;48.294;16.388;2023-01-28T02:44:53;99970.69;;;-1.05;100.00
47726;BME280;33483;48.294;16.388;2023-01-28T02:47:21;99971.13;;;-1.06;100.00
47726;BME280;33483;48.294;16.388;2023-01-28T02:50:08;99971.84;;;-1.06;100.00
47726;BME280;33483;48.294;16.388;2023-01-28T03:06:11;99977.75;;;-1.07;100.00
47726;BME280;33483;48.294;16.388;2023-01-28T03:08:47;99976.66;;;-1.10;100.00
47726;BME280;33483;48.294;16.388;2023-01-28T03:11:41;99980.91;;;-1.09;100.00
47726;BME280;33483;48.294;16.388;2023-01-28T03:14:28;99980.13;;;-1.09;100.00
47726;BME280;33483;48.294;16.388;2023-01-28T03:17:20;99985.91;;;-1.07;100.00
47726;BME280;33483;48.294;16.388;2023-01-28T03:20:08;99989.06;;;-1.09;100.00
47726;BME280;33483;48.294;16.388;2023-01-28T03:22:55;99991.13;;;-1.13;100.00
47726;BME280;33483;48.294;16.388;2023-01-28T03:25:43;99986.91;;;-1.14;100.00
47726;BME280;33483;48.294;16.388;2023-01-28T03:28:30;99986.56;;;-1.16;100.00
47726;BME280;33483;48.294;16.388;2023-01-28T03:31:18;99997.56;;;-1.20;100.00
47726;BME280;33483;48.294;16.388;2023-01-28T03:34:10;99999.06;;;-1.19;100.00
47726;BME280;33483;48.294;16.388;2023-01-28T03:36:56;99989.41;;;-1.20;100.00
47726;BME280;33483;48.294;16.388;2023-01-28T03:39:43;99994.19;;;-1.24;100.00
47726;BME280;33483;48.294;16.388;2023-01-28T03:42:14;99993.00;;;-1.23;100.00
47726;BME280;33483;48.294;16.388;2023-01-28T03:45:01;99987.44;;;-1.32;100.00
47726;BME280;33483;48.294;16.388;2023-01-28T03:47:31;99994.72;;;-1.29;100.00
47726;BME280;33483;48.294;16.388;2023-01-28T03:50:00;99996.03;;;-1.33;100.00
47726;BME280;33483;48.294;16.388;2023-01-28T03:52:33;99996.81;;;-1.33;100.00
47726;BME280;33483;48.294;16.388;2023-01-28T03:55:27;99992.66;;;-1.37;100.00
47726;BME280;33483;48.294;16.388;2023-01-28T03:57:54;99991.91;;;-1.38;100.00
47726;BME280;33483;48.294;16.388;2023-01-28T04:00:22;99992.66;;;-1.37;100.00
47726;BME280;33483;48.294;16.388;2023-01-28T04:02:49;99991.91;;;-1.38;100.00
47726;BME280;33483;48.294;16.388;2023-01-28T04:05:19;99989.19;;;-1.38;100.00
47726;BME280;33483;48.294;16.388;2023-01-28T04:07:48;99988.78;;;-1.36;100.00
47726;BME280;33483;48.294;16.388;2023-01-28T04:10:24;99994.94;;;-1.36;100.00
47726;BME280;33483;48.294;16.388;2023-01-28T04:13:11;99993.53;;;-1.40;100.00
47726;BME280;33483;48.294;16.388;2023-01-28T04:15:40;99994.31;;;-1.40;100.00
47726;BME280;33483;48.294;16.388;2023-01-28T04:18:10;99986.91;;;-1.39;100.00
47726;BME280;33483;48.294;16.388;2023-01-28T04:20:37;99985.28;;;-1.37;100.00
47726;BME280;33483;48.294;16.388;2023-01-28T04:23:05;99996.91;;;-1.36;100.00
47726;BME280;33483;48.294;16.388;2023-01-28T04:25:34;99995.72;;;-1.35;100.00
47726;BME280;33483;48.294;16.388;2023-01-28T04:28:07;99998.44;;;-1.35;100.00
47726;BME280;33483;48.294;16.388;2023-01-28T04:30:34;99994.22;;;-1.36;100.00
47726;BME280;33483;48.294;16.388;2023-01-28T04:33:11;99993.44;;;-1.37;100.00
47726;BME280;33483;48.294;16.388;2023-01-28T04:35:48;99994.94;;;-1.36;100.00
47726;BME280;33483;48.294;16.388;2023-01-28T04:38:35;99999.19;;;-1.35;100.00
47726;BME280;33483;48.294;16.388;2023-01-28T04:41:17;99997.66;;;-1.36;100.00
47726;BME280;33483;48.294;16.388;2023-01-28T04:43:45;99998.88;;;-1.37;100.00
47726;BME280;33483;48.294;16.388;2023-01-28T04:46:33;100006.25;;;-1.37;100.00
47726;BME280;33483;48.294;16.388;2023-01-28T04:49:13;100005.81;;;-1.36;100.00
47726;BME280;33483;48.294;16.388;2023-01-28T04:51:49;100006.25;;;-1.37;100.00
47726;BME280;33483;48.294;16.388;2023-01-28T04:54:31;100006.25;;;-1.37;100.00
47726;BME280;33483;48.294;16.388;2023-01-28T04:57:00;100008.66;;;-1.39;100.00
47726;BME280;33483;48.294;16.388;2023-01-28T04:59:29;100007.13;;;-1.40;100.00
47726;BME280;33483;48.294;16.388;2023-01-28T05:01:56;100014.41;;;-1.37;100.00
47726;BME280;33483;48.294;16.388;2023-01-28T05:04:23;100011.59;;;-1.34;100.00
47726;BME280;33483;48.294;16.388;2023-01-28T05:06:53;100012.34;;;-1.33;100.00
47726;BME280;33483;48.294;16.388;2023-01-28T05:09:27;100013.44;;;-1.31;100.00
47726;BME280;33483;48.294;16.388;2023-01-28T05:11:55;100014.84;;;-1.26;100.00
47726;BME280;33483;48.294;16.388;2023-01-28T05:14:23;100012.13;;;-1.26;100.00
47726;BME280;33483;48.294;16.388;2023-01-28T05:16:59;100009.75;;;-1.24;100.00
47726;BME280;33483;48.294;16.388;2023-01-28T05:19:27;100018.22;;;-1.22;100.00
47726;BME280;33483;48.294;16.388;2023-01-28T05:21:55;100017.91;;;-1.24;100.00
47726;BME280;33483;48.294;16.388;2023-01-28T05:24:36;100027.91;;;-1.21;100.00
47726;BME280;33483;48.294;16.388;2023-01-28T05:27:07;100021.69;;;-1.22;100.00
47726;BME280;33483;48.294;16.388;2023-01-28T05:29:35;100022.34;;;-1.18;100.00
47726;BME280;33483;48.294;16.388;2023-01-28T05:32:02;100023.13;;;-1.17;100.00
47726;BME280;33483;48.294;16.388;2023-01-28T05:34:35;100023.88;;;-1.17;100.00
47726;BME280;33483;48.294;16.388;2023-01-28T05:37:08;100023.41;;;-1.15;100.00
47726;BME280;33483;48.294;16.388;2023-01-28T05:39:37;100027.25;;;-1.13;100.00
47726;BME280;33483;48.294;16.388;2023-01-28T05:42:04;100022.25;;;-1.14;100.00
47726;BME280;33483;48.294;16.388;2023-01-28T05:44:34;100021.03;;;-1.13;100.00
47726;BME280;33483;48.294;16.388;2023-01-28T05:47:26;100025.72;;;-1.13;100.00
47726;BME280;33483;48.294;16.388;2023-01-28T05:50:23;100026.91;;;-1.15;100.00
47726;BME280;33483;48.294;16.388;2023-01-28T05:53:28;100036.16;;;-1.12;100.00
47726;BME280;33483;48.294;16.388;2023-01-28T05:55:56;100026.03;;;-1.12;100.00
47726;BME280;33483;48.294;16.388;2023-01-28T05:58:23;100032.25;;;-1.11;100.00
47726;BME280;33483;48.294;16.388;2023-01-28T06:00:56;100031.81;;;-1.09;100.00
47726;BME280;33483;48.294;16.388;2023-01-28T06:03:29;100043.78;;;-1.07;100.00
47726;BME280;33483;48.294;16.388;2023-01-28T06:05:56;100036.81;;;-1.08;100.00
47726;BME280;33483;48.294;16.388;2023-01-28T06:08:23;100042.56;;;-1.06;100.00
47726;BME280;33483;48.294;16.388;2023-01-28T06:10:50;100041.81;;;-1.06;100.00
47726;BME280;33483;48.294;16.388;2023-01-28T06:13:25;100038.00;;;-1.09;100.00
47726;BME280;33483;48.294;16.388;2023-01-28T06:16:10;100050.28;;;-1.04;100.00
47726;BME280;33483;48.294;16.388;2023-01-28T06:18:52;100051.81;;;-1.03;100.00
47726;BME280;33483;48.294;16.388;2023-01-28T06:21:20;100059.09;;;-1.00;100.00
47726;BME280;33483;48.294;16.388;2023-01-28T06:23:47;100058.66;;;-0.99;100.00
47726;BME280;33483;48.294;16.388;2023-01-28T06:26:14;100054.31;;;-0.96;100.00
47726;BME280;33483;48.294;16.388;2023-01-28T06:28:44;100049.94;;;-0.94;100.00
47726;BME280;33483;48.294;16.388;2023-01-28T06:31:11;100055.09;;;-0.96;100.00
47726;BME280;33483;48.294;16.388;2023-01-28T06:33:40;100058.13;;;-0.94;100.00
47726;BME280;33483;48.294;16.388;2023-01-28T06:36:08;100056.50;;;-0.91;100.00
47726;BME280;33483;48.294;16.388;2023-01-28T06:38:35;100072.38;;;-0.90;100.00
47726;BME280;33483;48.294;16.388;2023-01-28T06:41:02;100066.06;;;-0.87;100.00
47726;BME280;33483;48.294;16.388;2023-01-28T06:43:29;100066.06;;;-0.87;100.00
47726;BME280;33483;48.294;16.388;2023-01-28T06:45:57;100063.66;;;-0.85;100.00
47726;BME280;33483;48.294;16.388;2023-01-28T06:48:24;100067.91;;;-0.84;100.00
47726;BME280;33483;48.294;16.388;2023-01-28T06:50:54;100075.75;;;-0.86;100.00
47726;BME280;33483;48.294;16.388;2023-01-28T06:53:21;100081.53;;;-0.84;100.00
47726;BME280;33483;48.294;16.388;2023-01-28T06:55:48;100082.16;;;-0.80;100.00
47726;BME280;33483;48.294;16.388;2023-01-28T06:58:16;100094.25;;;-0.81;100.00
47726;BME280;33483;48.294;16.388;2023-01-28T07:00:43;100090.97;;;-0.76;100.00
47726;BME280;33483;48.294;16.388;2023-01-28T07:03:10;100091.75;;;-0.75;100.00
47726;BME280;33483;48.294;16.388;2023-01-28T07:05:37;100095.97;;;-0.74;100.00
47726;BME280;33483;48.294;16.388;2023-01-28T07:08:05;100088.25;;;-0.76;100.00
47726;BME280;33483;48.294;16.388;2023-01-28T07:10:32;100084.97;;;-0.71;100.00
47726;BME280;33483;48.294;16.388;2023-01-28T07:12:59;100082.59;;;-0.69;100.00
47726;BME280;33483;48.294;16.388;2023-01-28T07:15:29;100083.69;;;-0.66;100.00
47726;BME280;33483;48.294;16.388;2023-01-28T07:17:56;100091.41;;;-0.65;100.00
47726;BME280;33483;48.294;16.388;2023-01-28T07:20:25;100091.41;;;-0.65;100.00
47726;BME280;33483;48.294;16.388;2023-01-28T07:22:52;100090.19;;;-0.64;100.00
47726;BME280;33483;48.294;16.388;2023-01-28T07:25:19;100092.03;;;-0.61;100.00
47726;BME280;33483;48.294;16.388;2023-01-28T07:27:47;100090.53;;;-0.62;100.00
47726;BME280;33483;48.294;16.388;2023-01-28T07:30:15;100094.00;;;-0.61;100.00
47726;BME280;33483;48.294;16.388;2023-01-28T07:32:43;100096.28;;;-0.60;100.00
47726;BME280;33483;48.294;16.388;2023-01-28T07:35:10;100097.34;;;-0.57;100.00
47726;BME280;33483;48.294;16.388;2023-01-28T07:37:38;100104.22;;;-0.53;100.00
47726;BME280;33483;48.294;16.388;2023-01-28T07:40:05;100108.91;;;-0.53;100.00
47726;BME280;33483;48.294;16.388;2023-01-28T07:42:33;100111.19;;;-0.52;100.00
47726;BME280;33483;48.294;16.388;2023-01-28T07:45:05;100110.63;;;-0.47;100.00
47726;BME280;33483;48.294;16.388;2023-01-28T07:47:32;100100.94;;;-0.48;100.00
47726;BME280;33483;48.294;16.388;2023-01-28T07:49:59;100104.63;;;-0.42;100.00
47726;BME280;33483;48.294;16.388;2023-01-28T07:52:29;100108.44;;;-0.39;100.00
47726;BME280;33483;48.294;16.388;2023-01-28T07:55:01;100105.38;;;-0.41;100.00
47726;BME280;33483;48.294;16.388;2023-01-28T07:57:28;100115.41;;;-0.38;100.00
47726;BME280;33483;48.294;16.388;2023-01-28T07:59:58;100113.44;;;-0.38;100.00
47726;BME280;33483;48.294;16.388;2023-01-28T08:02:25;100117.44;;;-0.30;100.00
47726;BME280;33483;48.294;16.388;2023-01-28T08:04:53;100119.75;;;-0.28;100.00
47726;BME280;33483;48.294;16.388;2023-01-28T08:07:20;100130.31;;;-0.30;100.00
47726;BME280;33483;48.294;16.388;2023-01-28T08:09:47;100135.44;;;-0.32;100.00
47726;BME280;33483;48.294;16.388;2023-01-28T08:12:14;100131.06;;;-0.30;100.00
47726;BME280;33483;48.294;16.388;2023-01-28T08:14:41;100132.91;;;-0.27;100.00
47726;BME280;33483;48.294;16.388;2023-01-28T08:17:08;100139.22;;;-0.30;100.00
47726;BME280;33483;48.294;16.388;2023-01-28T08:19:36;100143.81;;;-0.27;100.00
47726;BME280;33483;48.294;16.388;2023-01-28T08:22:03;100136.38;;;-0.26;100.00
47726;BME280;33483;48.294;16.388;2023-01-28T08:24:33;100147.59;;;-0.24;100.00
47726;BME280;33483;48.294;16.388;2023-01-28T08:27:00;100145.31;;;-0.26;100.00
47726;BME280;33483;48.294;16.388;2023-01-28T08:29:27;100152.00;;;-0.27;100.00
47726;BME280;33483;48.294;16.388;2023-01-28T08:31:57;100150.00;;;-0.26;100.00
47726;BME280;33483;48.294;16.388;2023-01-28T08:34:24;100153.16;;;-0.28;100.00
47726;BME280;33483;48.294;16.388;2023-01-28T08:36:51;100153.16;;;-0.28;100.00
47726;BME280;33483;48.294;16.388;2023-01-28T08:39:18;100162.13;;;-0.27;100.00
47726;BME280;33483;48.294;16.388;2023-01-28T08:41:45;100160.16;;;-0.27;100.00
47726;BME280;33483;48.294;16.388;2023-01-28T08:44:12;100166.66;;;-0.24;100.00
47726;BME280;33483;48.294;16.388;2023-01-28T08:46:39;100168.94;;;-0.23;100.00
47726;BME280;33483;48.294;16.388;2023-01-28T08:49:07;100174.72;;;-0.21;100.00
47726;BME280;33483;48.294;16.388;2023-01-28T08:51:34;100169.06;;;-0.14;100.00
47726;BME280;33483;48.294;16.388;2023-01-28T08:54:01;100174.63;;;-0.17;100.00
47726;BME280;33483;48.294;16.388;2023-01-28T08:56:28;100171.78;;;-0.14;100.00
47726;BME280;33483;48.294;16.388;2023-01-28T08:58:56;100176.91;;;-0.16;100.00
47726;BME280;33483;48.294;16.388;2023-01-28T09:01:23;100175.38;;;-0.17;100.00
47726;BME280;33483;48.294;16.388;2023-01-28T09:03:54;100175.59;;;-0.11;100.00
47726;BME280;33483;48.294;16.388;2023-01-28T09:06:21;100178.44;;;-0.15;100.00
47726;BME280;33483;48.294;16.388;2023-01-28T09:08:49;100169.81;;;-0.13;100.00
47726;BME280;33483;48.294;16.388;2023-01-28T09:11:16;100174.63;;;-0.17;100.00
47726;BME280;33483;48.294;16.388;2023-01-28T09:13:43;100179.63;;;-0.16;100.00
47726;BME280;33483;48.294;16.388;2023-01-28T09:16:10;100180.06;;;-0.17;100.00
47726;BME280;33483;48.294;16.388;2023-01-28T09:18:37;100172.22;;;-0.15;100.00
47726;BME280;33483;48.294;16.388;2023-01-28T09:21:05;100177.09;;;-0.10;100.00
47726;BME280;33483;48.294;16.388;2023-01-28T09:23:33;100171.22;;;-0.09;100.00
47726;BME280;33483;48.294;16.388;2023-01-28T09:26:00;100172.63;;;-0.04;100.00
47726;BME280;33483;48.294;16.388;2023-01-28T09:28:28;100180.03;;;-0.05;100.00
47726;BME280;33483;48.294;16.388;2023-01-28T09:31:00;100183.84;;;-0.02;100.00
47726;BME280;33483;48.294;16.388;2023-01-28T09:33:27;100188.41;;;0.01;100.00
47726;BME280;33483;48.294;16.388;2023-01-28T09:35:54;100177.84;;;0.03;100.00
47726;BME280;33483;48.294;16.388;2023-01-28T09:38:21;100181.31;;;0.03;100.00
47726;BME280;33483;48.294;16.388;2023-01-28T09:40:51;100181.00;;;0.02;100.00
47726;BME280;33483;48.294;16.388;2023-01-28T09:43:29;100186.75;;;0.03;100.00
47726;BME280;33483;48.294;16.388;2023-01-28T09:46:04;100188.31;;;0.05;100.00
47726;BME280;33483;48.294;16.388;2023-01-28T09:48:33;100194.06;;;0.07;100.00
47726;BME280;33483;48.294;16.388;2023-01-28T09:51:07;100195.59;;;0.08;100.00
47726;BME280;33483;48.294;16.388;2023-01-28T09:53:37;100195.59;;;0.08;100.00
47726;BME280;33483;48.294;16.388;2023-01-28T09:56:08;100194.28;;;0.12;100.00
47726;BME280;33483;48.294;16.388;2023-01-28T09:58:37;100200.03;;;0.14;100.00
47726;BME280;33483;48.294;16.388;2023-01-28T10:14:38;100193.28;;;0.40;100.00
47726;BME280;33483;48.294;16.388;2023-01-28T10:19:19;100177.66;;;0.53;100.00
47726;BME280;33483;48.294;16.388;2023-01-28T10:21:50;100180.69;;;0.55;100.00
47726;BME280;33483;48.294;16.388;2023-01-28T10:26:51;100179.66;;;0.40;100.00
47726;BME280;33483;48.294;16.388;2023-01-28T10:29:20;100175.09;;;0.37;100.00
47726;BME280;33483;48.294;16.388;2023-01-28T10:31:51;100183.28;;;0.37;100.00
47726;BME280;33483;48.294;16.388;2023-01-28T10:34:19;100188.53;;;0.32;100.00
47726;BME280;33483;48.294;16.388;2023-01-28T10:36:47;100186.25;;;0.30;100.00
47726;BME280;33483;48.294;16.388;2023-01-28T10:39:15;100185.88;;;0.41;100.00
47726;BME280;33483;48.294;16.388;2023-01-28T10:41:42;100194.25;;;0.46;100.00
47726;BME280;33483;48.294;16.388;2023-01-28T10:44:27;100196.00;;;0.40;100.00
47726;BME280;33483;48.294;16.388;2023-01-28T10:46:58;100195.53;;;0.33;100.00
47726;BME280;33483;48.294;16.388;2023-01-28T10:49:28;100199.97;;;0.39;100.00
47726;BME280;33483;48.294;16.388;2023-01-28T10:51:57;100193.13;;;0.35;100.00
47726;BME280;33483;48.294;16.388;2023-01-28T10:54:25;100198.00;;;0.40;100.00
47726;BME280;33483;48.294;16.388;2023-01-28T10:57:00;100194.63;;;0.36;100.00
47726;BME280;33483;48.294;16.388;2023-01-28T10:59:29;100197.69;;;0.38;100.00
47726;BME280;33483;48.294;16.388;2023-01-28T11:01:57;100210.50;;;0.50;100.00
47726;BME280;33483;48.294;16.388;2023-01-28T11:04:27;100204.41;;;0.46;100.00
47726;BME280;33483;48.294;16.388;2023-01-28T11:06:58;100205.38;;;0.52;100.00
47726;BME280;33483;48.294;16.388;2023-01-28T11:09:35;100203.16;;;0.59;100.00
47726;BME280;33483;48.294;16.388;2023-01-28T11:12:37;100198.19;;;0.67;100.00
47726;BME280;33483;48.294;16.388;2023-01-28T11:15:04;100192.22;;;0.81;100.00
47726;BME280;33483;48.294;16.388;2023-01-28T11:17:33;100192.41;;;0.86;100.00
47726;BME280;33483;48.294;16.388;2023-01-28T11:20:40;100193.41;;;1.01;100.00
47726;BME280;33483;48.294;16.388;2023-01-28T11:22:57;100194.44;;;0.95;100.00
47726;BME280;33483;48.294;16.388;2023-01-28T11:27:52;100194.28;;;1.20;100.00
47726;BME280;33483;48.294;16.388;2023-01-28T11:30:20;100184.56;;;1.19;100.00
47726;BME280;33483;48.294;16.388;2023-01-28T11:35:34;100187.88;;;1.14;100.00
47726;BME280;33483;48.294;16.388;2023-01-28T11:38:01;100190.69;;;1.01;100.00
47726;BME280;33483;48.294;16.388;2023-01-28T11:40:29;100191.94;;;1.09;100.00
47726;BME280;33483;48.294;16.388;2023-01-28T11:42:55;100185.41;;;1.07;100.00
47726;BME280;33483;48.294;16.388;2023-01-28T12:06:38;100179.69;;;0.83;100.00
47726;BME280;33483;48.294;16.388;2023-01-28T12:14:35;100184.81;;;0.60;100.00
47726;BME280;33483;48.294;16.388;2023-01-28T12:32:48;100195.09;;;0.56;100.00
47726;BME280;33483;48.294;16.388;2023-01-28T12:37:59;100196.34;;;0.64;100.00
47726;BME280;33483;48.294;16.388;2023-01-28T12:43:04;100203.00;;;0.63;100.00
47726;BME280;33483;48.294;16.388;2023-01-28T12:45:39;100193.97;;;0.66;100.00
47726;BME280;33483;48.294;16.388;2023-01-28T12:48:08;100200.59;;;0.65;100.00
47726;BME280;33483;48.294;16.388;2023-01-28T12:50:43;100204.28;;;0.71;100.00
47726;BME280;33483;48.294;16.388;2023-01-28T12:56:07;100207.34;;;0.73;100.00
47726;BME280;33483;48.294;16.388;2023-01-28T12:58:39;100201.69;;;0.67;100.00
47726;BME280;33483;48.294;16.388;2023-01-28T13:01:10;100204.22;;;0.62;100.00
47726;BME280;33483;48.294;16.388;2023-01-28T13:03:41;100204.22;;;0.62;100.00
47726;BME280;33483;48.294;16.388;2023-01-28T13:06:13;100187.84;;;0.62;100.00
47726;BME280;33483;48.294;16.388;2023-01-28T13:08:41;100203.19;;;0.68;100.00
47726;BME280;33483;48.294;16.388;2023-01-28T13:11:11;100199.97;;;0.61;100.00
47726;BME280;33483;48.294;16.388;2023-01-28T13:13:41;100205.25;;;0.55;100.00
47726;BME280;33483;48.294;16.388;2023-01-28T13:16:10;100202.38;;;0.59;100.00
47726;BME280;33483;48.294;16.388;2023-01-28T13:21:06;100201.66;;;0.46;100.00
47726;BME280;33483;48.294;16.388;2023-01-28T13:28:50;100196.47;;;0.39;100.00
47726;BME280;33483;48.294;16.388;2023-01-28T13:31:18;100204.75;;;0.35;100.00
47726;BME280;33483;48.294;16.388;2023-01-28T13:33:46;100210.22;;;0.35;100.00
47726;BME280;33483;48.294;16.388;2023-01-28T13:36:24;100216.88;;;0.34;100.00
47726;BME280;33483;48.294;16.388;2023-01-28T13:39:04;100208.25;;;0.36;100.00
47726;BME280;33483;48.294;16.388;2023-01-28T13:41:51;100213.72;;;0.36;100.00
47726;BME280;33483;48.294;16.388;2023-01-28T13:44:29;100218.28;;;0.39;100.00
47726;BME280;33483;48.294;16.388;2023-01-28T13:49:28;100229.81;;;0.43;100.00
47726;BME280;33483;48.294;16.388;2023-01-28T13:52:00;100228.19;;;0.45;100.00
47726;BME280;33483;48.294;16.388;2023-01-28T13:54:30;100224.44;;;0.52;100.00
47726;BME280;33483;48.294;16.388;2023-01-28T14:04:41;100224.56;;;0.48;100.00
47726;BME280;33483;48.294;16.388;2023-01-28T14:15:03;100229.63;;;0.37;100.00
47726;BME280;33483;48.294;16.388;2023-01-28T14:17:45;100231.41;;;0.31;100.00
47726;BME280;33483;48.294;16.388;2023-01-28T14:22:48;100249.06;;;0.27;100.00
47726;BME280;33483;48.294;16.388;2023-01-28T14:25:19;100244.81;;;0.26;100.00
47726;BME280;33483;48.294;16.388;2023-01-28T14:27:51;100250.72;;;0.24;100.00
47726;BME280;33483;48.294;16.388;2023-01-28T14:32:50;100244.72;;;0.17;100.00
47726;BME280;33483;48.294;16.388;2023-01-28T14:35:21;100248.56;;;0.19;100.00
47726;BME280;33483;48.294;16.388;2023-01-28T14:37:53;100248.34;;;0.14;100.00
47726;BME280;33483;48.294;16.388;2023-01-28T14:40:23;100247.47;;;0.17;100.00
47726;BME280;33483;48.294;16.388;2023-01-28T14:42:52;100251.81;;;0.14;100.00
47726;BME280;33483;48.294;16.388;2023-01-28T14:55:41;100256.19;;;0.12;100.00
47726;BME280;33483;48.294;16.388;2023-01-28T14:58:31;100258.59;;;0.10;100.00
47726;BME280;33483;48.294;16.388;2023-01-28T15:00:59;100262.19;;;0.07;100.00
47726;BME280;33483;48.294;16.388;2023-01-28T15:03:34;100272.66;;;0.08;100.00
47726;BME280;33483;48.294;16.388;2023-01-28T15:06:03;100267.97;;;0.09;100.00
47726;BME280;33483;48.294;16.388;2023-01-28T15:08:30;100265.66;;;0.07;100.00
47726;BME280;33483;48.294;16.388;2023-01-28T15:10:59;100271.22;;;0.03;100.00
47726;BME280;33483;48.294;16.388;2023-01-28T15:13:27;100275.50;;;0.05;100.00
47726;BME280;33483;48.294;16.388;2023-01-28T15:15:56;100280.94;;;0.05;100.00